createdAt,value
2019-05-29T00:00:16.004Z,6.65
2019-05-29T00:02:44.408Z,4.85
2019-05-29T00:05:12.863Z,7.42
2019-05-29T00:07:41.268Z,6.30
2019-05-29T00:10:10.481Z,6.12
2019-05-29T00:12:39.080Z,6.08
2019-05-29T00:15:08.373Z,8.43
2019-05-29T00:17:36.960Z,6.60
2019-05-29T00:20:06.459Z,6.60
2019-05-29T00:22:36.071Z,6.22
2019-05-29T00:25:06.387Z,8.30
2019-05-29T00:27:34.876Z,7.40
2019-05-29T00:30:03.842Z,7.53
2019-05-29T00:32:32.239Z,6.17
2019-05-29T00:35:00.629Z,6.45
2019-05-29T00:37:29.036Z,10.00
2019-05-29T00:39:57.477Z,8.13
2019-05-29T00:42:25.877Z,7.40
2019-05-29T00:44:54.265Z,9.13
2019-05-29T00:47:22.681Z,9.15
2019-05-29T00:49:51.077Z,12.65
2019-05-29T00:52:19.480Z,10.35
2019-05-29T00:54:47.871Z,10.13
2019-05-29T00:57:17.072Z,12.43
2019-05-29T00:59:45.535Z,9.65
2019-05-29T01:02:13.924Z,11.10
2019-05-29T01:04:42.628Z,9.03
2019-05-29T01:07:12.222Z,13.22
2019-05-29T01:09:40.797Z,11.80
2019-05-29T01:12:10.723Z,15.13
2019-05-29T01:14:49.585Z,11.88
2019-05-29T01:17:09.402Z,12.85
2019-05-29T01:19:37.797Z,13.65
2019-05-29T01:22:06.201Z,14.20
2019-05-29T01:24:34.890Z,14.28
2019-05-29T01:27:03.299Z,15.00
2019-05-29T01:29:31.703Z,12.58
2019-05-29T01:32:00.097Z,15.15
2019-05-29T01:34:29.524Z,16.90
2019-05-29T01:36:57.915Z,15.13
2019-05-29T01:39:27.619Z,16.77
2019-05-29T01:41:56.517Z,17.85
2019-05-29T01:44:24.952Z,16.37
2019-05-29T01:46:54.980Z,16.90
2019-05-29T01:49:24.766Z,17.07
2019-05-29T01:55:34.323Z,16.93
2019-05-29T01:58:02.706Z,18.75
2019-05-29T02:00:31.096Z,16.48
2019-05-29T02:02:59.752Z,18.87
2019-05-29T02:05:29.419Z,18.73
2019-05-29T02:07:57.804Z,19.03
2019-05-29T02:10:26.313Z,21.77
2019-05-29T02:12:54.695Z,15.63
2019-05-29T02:15:31.688Z,20.17
2019-05-29T02:17:53.357Z,16.15
2019-05-29T02:20:23.067Z,14.47
2019-05-29T02:22:51.715Z,17.35
2019-05-29T02:25:22.324Z,18.23
2019-05-29T02:27:50.825Z,18.92
2019-05-29T02:30:21.095Z,18.42
2019-05-29T02:32:50.006Z,16.62
2019-05-29T02:35:20.110Z,16.75
2019-05-29T02:37:48.685Z,20.70
2019-05-29T02:40:18.752Z,20.48
2019-05-29T02:42:47.481Z,18.10
2019-05-29T02:45:15.941Z,17.12
2019-05-29T02:47:44.356Z,18.75
2019-05-29T02:50:12.939Z,15.85
2019-05-29T02:52:41.395Z,14.78
2019-05-29T02:55:09.854Z,14.40
2019-05-29T02:57:38.264Z,15.03
2019-05-29T03:00:07.973Z,15.75
2019-05-29T03:02:36.546Z,15.05
2019-05-29T03:05:06.652Z,17.62
2019-05-29T03:07:35.616Z,12.43
2019-05-29T03:10:06.459Z,13.53
2019-05-29T03:12:34.864Z,15.20
2019-05-29T03:15:04.670Z,15.05
2019-05-29T03:17:33.808Z,14.10
2019-05-29T03:20:02.377Z,15.15
2019-05-29T03:22:32.732Z,12.60
2019-05-29T03:25:00.897Z,15.45
2019-05-29T03:27:29.835Z,12.88
2019-05-29T03:29:58.466Z,12.82
2019-05-29T03:32:28.372Z,14.05
2019-05-29T03:34:56.990Z,12.98
2019-05-29T03:37:26.294Z,11.80
2019-05-29T03:39:56.125Z,12.30
2019-05-29T03:42:26.274Z,14.43
2019-05-29T03:44:54.647Z,13.55
2019-05-29T03:47:23.061Z,11.53
2019-05-29T03:49:51.496Z,11.45
2019-05-29T03:52:19.901Z,12.63
2019-05-29T03:54:48.269Z,10.70
2019-05-29T03:57:18.117Z,10.20
2019-05-29T03:59:46.803Z,13.90
2019-05-29T04:02:15.489Z,11.08
2019-05-29T04:04:43.876Z,9.75
2019-05-29T04:07:12.271Z,11.22
2019-05-29T04:09:40.680Z,11.15
2019-05-29T04:12:09.077Z,10.10
2019-05-29T04:14:37.915Z,10.65
2019-05-29T04:17:07.071Z,12.60
2019-05-29T04:19:36.917Z,11.30
2019-05-29T04:22:11.042Z,11.18
2019-05-29T04:24:40.621Z,11.28
2019-05-29T04:27:13.836Z,14.10
2019-05-29T04:29:43.305Z,11.18
2019-05-29T04:32:13.043Z,8.13
2019-05-29T04:34:41.430Z,9.90
2019-05-29T04:37:09.888Z,11.90
2019-05-29T04:39:39.055Z,8.68
2019-05-29T04:42:07.653Z,9.90
2019-05-29T04:44:38.212Z,12.13
2019-05-29T04:47:11.041Z,10.38
2019-05-29T04:49:38.400Z,9.78
2019-05-29T04:52:07.793Z,9.25
2019-05-29T04:54:37.708Z,12.23
2019-05-29T04:57:06.215Z,9.58
2019-05-29T04:59:34.994Z,10.58
2019-05-29T05:02:03.489Z,8.55
2019-05-29T05:04:33.134Z,11.55
2019-05-29T05:07:01.764Z,9.55
2019-05-29T05:09:31.192Z,10.38
2019-05-29T05:11:59.806Z,14.65
2019-05-29T05:14:29.523Z,17.85
2019-05-29T05:16:58.347Z,14.60
2019-05-29T05:19:26.750Z,11.08
2019-05-29T05:21:55.128Z,12.63
2019-05-29T05:24:23.525Z,16.57
2019-05-29T05:26:51.928Z,11.85
2019-05-29T05:29:20.332Z,14.78
2019-05-29T05:31:48.725Z,16.70
2019-05-29T05:34:17.193Z,13.30
2019-05-29T05:36:45.736Z,8.73
2019-05-29T05:39:14.146Z,10.58
2019-05-29T05:41:42.548Z,10.72
2019-05-29T05:44:10.936Z,12.13
2019-05-29T05:46:39.326Z,10.78
2019-05-29T05:49:07.735Z,11.60
2019-05-29T05:51:39.881Z,10.15
2019-05-29T05:54:06.242Z,9.53
2019-05-29T05:56:35.619Z,7.83
2019-05-29T05:59:04.154Z,12.25
2019-05-29T06:01:33.706Z,9.65
2019-05-29T06:04:02.333Z,13.07
2019-05-29T06:06:31.915Z,8.68
2019-05-29T06:09:00.632Z,7.42
2019-05-29T06:11:29.066Z,7.60
2019-05-29T06:13:57.440Z,7.70
2019-05-29T06:16:25.842Z,9.33
2019-05-29T06:18:54.488Z,9.58
2019-05-29T06:21:22.883Z,7.87
2019-05-29T06:23:51.326Z,9.15
2019-05-29T06:26:19.800Z,12.37
2019-05-29T06:28:48.205Z,10.13
2019-05-29T06:31:16.597Z,13.10
2019-05-29T06:33:45.033Z,11.00
2019-05-29T06:36:13.466Z,17.30
2019-05-29T06:38:42.243Z,17.20
2019-05-29T06:41:10.693Z,13.55
2019-05-29T06:43:39.902Z,13.43
2019-05-29T06:46:08.456Z,21.93
2019-05-29T06:48:46.284Z,13.83
2019-05-29T06:51:06.984Z,10.72
2019-05-29T06:53:35.752Z,10.15
2019-05-29T06:56:04.372Z,9.35
2019-05-29T06:58:32.791Z,12.45
2019-05-29T07:01:01.203Z,13.83
2019-05-29T07:03:29.595Z,16.65
2019-05-29T07:05:58.437Z,11.15
2019-05-29T07:08:38.190Z,13.60
2019-05-29T07:10:56.933Z,10.28
2019-05-29T07:13:25.326Z,13.88
2019-05-29T07:15:53.767Z,10.48
2019-05-29T07:18:22.216Z,12.13
2019-05-29T07:20:50.619Z,11.10
2019-05-29T07:23:19.007Z,11.65
2019-05-29T07:25:47.529Z,14.68
2019-05-29T07:28:22.205Z,9.18
2019-05-29T07:31:00.803Z,11.45
2019-05-29T07:33:20.943Z,10.70
2019-05-29T07:35:49.362Z,9.20
2019-05-29T07:38:17.728Z,9.55
2019-05-29T07:40:49.932Z,6.20
2019-05-29T07:43:18.157Z,11.20
2019-05-29T07:45:48.136Z,7.78
2019-05-29T07:48:16.712Z,11.35
2019-05-29T07:50:46.061Z,13.90
2019-05-29T07:53:14.676Z,10.75
2019-05-29T07:55:43.060Z,12.65
2019-05-29T07:58:11.448Z,8.80
2019-05-29T08:01:00.852Z,7.85
2019-05-29T08:03:10.023Z,8.78
2019-05-29T08:05:39.197Z,9.20
2019-05-29T08:08:07.795Z,9.50
2019-05-29T08:10:36.185Z,6.92
2019-05-29T08:13:04.575Z,7.70
2019-05-29T08:15:32.971Z,10.23
2019-05-29T08:18:01.369Z,10.08
2019-05-29T08:20:29.760Z,7.33
2019-05-29T08:22:58.155Z,8.68
2019-05-29T08:25:26.562Z,5.60
2019-05-29T08:27:55.013Z,7.08
2019-05-29T08:30:23.399Z,6.08
2019-05-29T08:32:52.165Z,11.03
2019-05-29T08:35:20.568Z,7.65
2019-05-29T08:37:49.187Z,10.58
2019-05-29T08:40:17.868Z,10.50
2019-05-29T08:42:47.317Z,9.53
2019-05-29T08:45:16.062Z,10.90
2019-05-29T08:47:45.523Z,8.75
2019-05-29T08:50:18.634Z,8.03
2019-05-29T08:52:45.976Z,10.00
2019-05-29T08:55:14.593Z,13.03
2019-05-29T08:57:44.115Z,9.78
2019-05-29T09:00:13.134Z,7.27
2019-05-29T09:02:42.572Z,8.90
2019-05-29T09:05:11.395Z,10.23
2019-05-29T09:07:39.806Z,10.05
2019-05-29T09:10:08.999Z,9.68
2019-05-29T09:12:37.405Z,8.88
2019-05-29T09:15:08.290Z,9.23
2019-05-29T09:17:37.159Z,6.65
2019-05-29T09:20:07.570Z,9.63
2019-05-29T09:22:35.948Z,7.55
2019-05-29T09:25:05.876Z,7.33
2019-05-29T09:27:34.264Z,8.35
2019-05-29T09:30:02.648Z,10.23
2019-05-29T09:32:48.355Z,6.85
2019-05-29T09:35:02.514Z,7.03
2019-05-29T09:37:31.675Z,5.40
2019-05-29T09:40:00.091Z,7.05
2019-05-29T09:42:28.498Z,8.48
2019-05-29T09:44:56.875Z,12.58
2019-05-29T09:47:26.385Z,9.15
2019-05-29T09:49:54.955Z,10.60
2019-05-29T09:52:23.372Z,7.47
2019-05-29T09:54:52.999Z,6.33
2019-05-29T09:57:21.927Z,5.83
2019-05-29T09:59:53.784Z,5.30
2019-05-29T10:02:21.712Z,5.90
2019-05-29T10:04:50.106Z,5.80
2019-05-29T10:07:18.496Z,4.28
2019-05-29T10:09:46.897Z,4.50
2019-05-29T10:12:15.278Z,6.42
2019-05-29T10:14:43.705Z,7.00
2019-05-29T10:17:13.248Z,7.45
2019-05-29T10:19:42.271Z,6.83
2019-05-29T10:22:10.672Z,3.25
2019-05-29T10:24:39.068Z,4.53
2019-05-29T10:27:07.825Z,9.25
2019-05-29T10:29:36.203Z,8.90
2019-05-29T10:32:04.592Z,8.33
2019-05-29T10:34:32.996Z,4.35
2019-05-29T10:37:01.380Z,6.30
2019-05-29T10:39:29.781Z,5.85
2019-05-29T10:41:59.452Z,4.90
2019-05-29T10:44:27.944Z,5.33
2019-05-29T10:46:56.636Z,3.90
2019-05-29T10:49:25.634Z,4.75
2019-05-29T10:52:10.888Z,5.12
2019-05-29T10:54:24.175Z,4.92
2019-05-29T10:56:53.026Z,8.68
2019-05-29T10:59:21.546Z,6.30
2019-05-29T11:01:51.141Z,3.70
2019-05-29T11:04:20.015Z,6.03
2019-05-29T11:06:49.991Z,3.62
2019-05-29T11:09:23.780Z,5.33
2019-05-29T11:11:55.108Z,6.17
2019-05-29T11:14:23.427Z,5.65
2019-05-29T11:16:57.771Z,7.35
2019-05-29T11:22:26.371Z,4.92
2019-05-29T11:25:20.635Z,2.90
2019-05-29T11:27:26.375Z,4.17
2019-05-29T11:29:55.234Z,3.08
2019-05-29T11:32:25.718Z,3.70
2019-05-29T11:34:55.425Z,4.15
2019-05-29T11:37:23.960Z,4.83
2019-05-29T11:39:54.794Z,2.00
2019-05-29T11:42:27.420Z,4.25
2019-05-29T11:44:55.139Z,2.45
2019-05-29T11:49:51.408Z,5.28
2019-05-29T11:52:24.759Z,5.85
2019-05-29T11:54:55.587Z,4.85
2019-05-29T11:57:20.365Z,5.40
2019-05-29T11:59:48.748Z,2.30
2019-05-29T12:02:17.539Z,3.98
2019-05-29T12:04:45.922Z,4.05
2019-05-29T12:07:14.315Z,5.65
2019-05-29T12:09:42.778Z,6.22
2019-05-29T12:12:11.227Z,2.67
2019-05-29T12:14:58.983Z,5.65
2019-05-29T12:19:37.591Z,9.60
2019-05-29T12:22:06.173Z,3.45
2019-05-29T12:24:34.563Z,3.00
2019-05-29T12:27:02.981Z,3.52
2019-05-29T12:29:31.355Z,2.52
2019-05-29T12:32:01.608Z,2.22
2019-05-29T12:34:29.867Z,3.27
2019-05-29T12:36:59.411Z,3.67
2019-05-29T12:39:28.028Z,2.47
2019-05-29T12:41:57.580Z,4.53
2019-05-29T12:44:26.085Z,1.27
2019-05-29T12:46:55.566Z,2.02
2019-05-29T12:49:24.015Z,2.23
2019-05-29T12:51:53.405Z,5.78
2019-05-29T12:54:23.238Z,4.63
2019-05-29T12:56:51.695Z,3.00
2019-05-29T12:59:21.865Z,1.27
2019-05-29T13:01:50.248Z,3.95
2019-05-29T13:04:18.645Z,1.47
2019-05-29T13:06:47.047Z,3.67
2019-05-29T13:09:15.429Z,4.45
2019-05-29T13:11:43.837Z,2.30
2019-05-29T13:14:12.211Z,2.10
2019-05-29T13:16:40.617Z,1.82
2019-05-29T13:19:09.303Z,1.62
2019-05-29T13:21:39.064Z,1.85
2019-05-29T13:24:11.309Z,2.42
2019-05-29T13:26:37.560Z,3.02
2019-05-29T13:29:06.186Z,2.85
2019-05-29T13:31:34.700Z,1.70
2019-05-29T13:34:04.322Z,1.32
2019-05-29T13:36:32.868Z,2.55
2019-05-29T13:39:02.394Z,2.62
2019-05-29T13:41:30.948Z,1.57
2019-05-29T13:44:00.527Z,4.00
2019-05-29T13:46:29.300Z,3.30
2019-05-29T13:48:58.889Z,1.52
2019-05-29T13:51:27.983Z,3.30
2019-05-29T13:54:03.615Z,1.02
2019-05-29T13:56:26.482Z,2.98
2019-05-29T13:58:55.343Z,2.70
2019-05-29T14:01:23.733Z,0.80
2019-05-29T14:03:52.128Z,0.90
2019-05-29T14:06:20.525Z,2.65
2019-05-29T14:08:48.905Z,0.98
2019-05-29T14:11:17.465Z,1.12
2019-05-29T14:13:45.874Z,2.05
2019-05-29T14:16:14.253Z,2.25
2019-05-29T14:18:42.663Z,1.77
2019-05-29T14:21:11.112Z,1.35
2019-05-29T14:23:40.046Z,0.80
2019-05-29T14:26:08.888Z,2.02
2019-05-29T14:28:37.283Z,2.22
2019-05-29T14:31:06.020Z,0.62
2019-05-29T14:33:34.535Z,4.92
2019-05-29T14:36:03.472Z,2.77
2019-05-29T14:38:32.096Z,2.77
2019-05-29T14:41:01.714Z,2.02
2019-05-29T14:43:30.221Z,1.75
2019-05-29T14:45:58.608Z,0.80
2019-05-29T14:48:27.007Z,1.20
2019-05-29T14:50:55.414Z,2.17
2019-05-29T14:53:23.822Z,2.22
2019-05-29T14:55:52.197Z,2.72
2019-05-29T14:58:20.597Z,1.95
2019-05-29T15:00:48.973Z,1.82
2019-05-29T15:03:17.365Z,2.33
2019-05-29T15:05:45.783Z,1.40
2019-05-29T15:08:14.329Z,2.58
2019-05-29T15:10:42.687Z,2.20
2019-05-29T15:13:13.753Z,2.72
2019-05-29T15:15:43.279Z,3.33
2019-05-29T15:18:17.282Z,2.33
2019-05-29T15:20:43.569Z,2.33
2019-05-29T15:23:11.948Z,2.47
2019-05-29T15:25:40.361Z,1.87
2019-05-29T15:28:12.015Z,0.82
2019-05-29T15:30:38.858Z,0.82
2019-05-29T15:33:08.669Z,1.37
2019-05-29T15:35:37.601Z,1.57
2019-05-29T15:38:06.664Z,0.93
2019-05-29T15:40:35.267Z,1.85
2019-05-29T15:43:04.916Z,1.62
2019-05-29T15:45:33.330Z,1.00
2019-05-29T15:48:01.789Z,1.72
2019-05-29T15:50:30.169Z,1.10
2019-05-29T15:52:58.545Z,1.10
2019-05-29T15:55:33.925Z,1.17
2019-05-29T15:57:57.067Z,1.10
2019-05-29T16:00:25.516Z,0.75
2019-05-29T16:02:53.894Z,1.45
2019-05-29T16:05:22.380Z,1.62
2019-05-29T16:07:50.765Z,3.00
2019-05-29T16:10:23.625Z,0.90
2019-05-29T16:12:52.276Z,2.17
2019-05-29T16:15:21.024Z,1.02
2019-05-29T16:17:49.405Z,2.70
2019-05-29T16:20:18.917Z,1.25
2019-05-29T16:22:47.316Z,1.63
2019-05-29T16:25:17.128Z,1.10
2019-05-29T16:27:45.495Z,1.17
2019-05-29T16:30:17.773Z,1.20
2019-05-29T16:32:46.414Z,1.45
2019-05-29T16:35:15.659Z,1.20
2019-05-29T16:37:44.051Z,1.17
2019-05-29T16:40:18.010Z,0.37
2019-05-29T16:42:46.640Z,1.85
2019-05-29T16:45:18.563Z,3.60
2019-05-29T16:47:47.072Z,2.30
2019-05-29T16:50:19.200Z,5.30
2019-05-29T16:52:47.803Z,1.35
2019-05-29T16:55:17.264Z,1.80
2019-05-29T16:57:45.746Z,2.50
2019-05-29T17:00:17.452Z,2.87
2019-05-29T17:02:46.143Z,2.15
2019-05-29T17:05:15.783Z,1.80
2019-05-29T17:07:44.603Z,1.82
2019-05-29T17:10:14.728Z,2.72
2019-05-29T17:12:43.130Z,5.12
2019-05-29T17:15:15.197Z,2.37
2019-05-29T17:17:44.060Z,2.58
2019-05-29T17:20:14.694Z,2.45
2019-05-29T17:22:43.477Z,3.00
2019-05-29T17:25:11.941Z,4.05
2019-05-29T17:27:40.328Z,2.67
2019-05-29T17:30:09.353Z,3.80
2019-05-29T17:32:37.742Z,1.32
2019-05-29T17:35:08.703Z,2.55
2019-05-29T17:37:37.381Z,1.65
2019-05-29T17:40:07.874Z,1.72
2019-05-29T17:45:05.937Z,1.10
2019-05-29T17:47:34.654Z,0.98
2019-05-29T17:50:05.767Z,2.37
2019-05-29T17:52:34.183Z,1.15
2019-05-29T17:55:02.632Z,2.02
2019-05-29T17:57:32.696Z,1.25
2019-05-29T18:00:02.359Z,1.10
2019-05-29T18:02:30.782Z,2.77
2019-05-29T18:04:59.178Z,3.08
2019-05-29T18:07:27.577Z,1.98
2019-05-29T18:09:55.964Z,2.70
2019-05-29T18:12:25.065Z,2.25
2019-05-29T18:14:53.901Z,5.37
2019-05-29T18:17:23.494Z,3.22
2019-05-29T18:19:53.440Z,2.20
2019-05-29T18:22:21.857Z,2.42
2019-05-29T18:24:50.260Z,2.12
2019-05-29T18:27:19.742Z,3.58
2019-05-29T18:29:48.227Z,1.57
2019-05-29T18:32:16.625Z,1.32
2019-05-29T18:34:45.019Z,1.35
2019-05-29T18:37:13.416Z,1.80
2019-05-29T18:39:41.803Z,5.60
2019-05-29T18:42:10.201Z,1.22
2019-05-29T18:44:38.683Z,1.70
2019-05-29T18:47:07.349Z,3.37
2019-05-29T18:49:35.735Z,2.95
2019-05-29T18:52:04.707Z,1.45
2019-05-29T18:54:33.193Z,2.65
2019-05-29T18:57:14.697Z,2.60
2019-05-29T18:59:31.877Z,4.95
2019-05-29T19:02:00.463Z,3.85
2019-05-29T19:04:29.893Z,4.15
2019-05-29T19:06:58.421Z,1.57
2019-05-29T19:09:27.834Z,1.25
2019-05-29T19:11:56.388Z,3.05
2019-05-29T19:14:25.799Z,1.25
2019-05-29T19:16:54.366Z,3.20
2019-05-29T19:19:23.945Z,1.82
2019-05-29T19:21:52.601Z,2.75
2019-05-29T19:24:22.426Z,1.90
2019-05-29T19:26:51.016Z,1.17
2019-05-29T19:29:20.799Z,2.90
2019-05-29T19:31:49.217Z,4.00
2019-05-29T19:34:17.655Z,4.17
2019-05-29T19:36:46.039Z,3.40
2019-05-29T19:39:14.430Z,2.60
2019-05-29T19:41:42.819Z,5.00
2019-05-29T19:44:11.225Z,3.08
2019-05-29T19:46:53.177Z,2.70
2019-05-29T19:49:09.709Z,3.22
2019-05-29T19:51:38.341Z,2.12
2019-05-29T19:54:06.749Z,2.62
2019-05-29T19:56:35.974Z,3.45
2019-05-29T19:59:04.577Z,2.50
2019-05-29T20:01:37.524Z,3.47
2019-05-29T20:04:03.098Z,4.65
2019-05-29T20:06:33.181Z,2.45
2019-05-29T20:09:01.632Z,4.30
2019-05-29T20:11:30.036Z,5.58
2019-05-29T20:14:01.691Z,7.42
2019-05-29T20:16:30.145Z,7.20
2019-05-29T20:18:58.524Z,5.45
2019-05-29T20:21:26.905Z,7.85
2019-05-29T20:23:55.378Z,8.65
2019-05-29T20:26:23.769Z,6.42
2019-05-29T20:28:52.447Z,8.33
2019-05-29T20:31:20.852Z,6.97
2019-05-29T20:33:49.220Z,6.83
2019-05-29T20:36:17.612Z,8.00
2019-05-29T20:38:46.007Z,8.45
2019-05-29T20:41:14.399Z,4.10
2019-05-29T20:43:42.800Z,8.13
2019-05-29T20:46:11.180Z,3.87
2019-05-29T20:48:39.654Z,5.28
2019-05-29T20:51:08.053Z,6.03
2019-05-29T20:53:37.482Z,3.65
2019-05-29T20:56:05.944Z,4.47
2019-05-29T20:58:34.345Z,4.45
2019-05-29T21:01:03.530Z,5.10
2019-05-29T21:03:32.305Z,4.08
2019-05-29T21:06:00.912Z,5.80
2019-05-29T21:08:29.303Z,7.87
2019-05-29T21:10:57.697Z,7.50
2019-05-29T21:13:26.081Z,10.40
2019-05-29T21:15:54.482Z,9.55
2019-05-29T21:18:22.872Z,10.70
2019-05-29T21:20:51.274Z,11.80
2019-05-29T21:23:19.663Z,6.05
2019-05-29T21:25:48.078Z,6.17
2019-05-29T21:28:16.447Z,9.08
2019-05-29T21:30:45.704Z,6.70
2019-05-29T21:33:14.311Z,9.13
2019-05-29T21:35:44.190Z,7.25
2019-05-29T21:38:12.724Z,8.50
2019-05-29T21:40:42.437Z,9.10
2019-05-29T21:43:11.010Z,9.65
2019-05-29T21:45:39.399Z,11.95
2019-05-29T21:48:07.781Z,11.10
2019-05-29T21:50:37.167Z,11.18
2019-05-29T21:53:05.735Z,7.25
2019-05-29T21:55:34.103Z,6.17
2019-05-29T21:58:02.556Z,5.90
2019-05-29T22:00:44.531Z,8.08
2019-05-29T22:03:15.037Z,6.60
2019-05-29T22:05:44.632Z,6.97
2019-05-29T22:08:13.252Z,6.87
2019-05-29T22:10:42.061Z,6.10
2019-05-29T22:13:10.438Z,6.45
2019-05-29T22:15:38.914Z,5.95
2019-05-29T22:18:07.300Z,3.62
2019-05-29T22:20:35.692Z,3.02
2019-05-29T22:23:04.363Z,3.92
2019-05-29T22:25:34.600Z,2.33
2019-05-29T22:28:02.950Z,2.90
2019-05-29T22:30:31.336Z,5.97
2019-05-29T22:32:59.717Z,3.72
2019-05-29T22:35:28.112Z,6.40
2019-05-29T22:37:57.677Z,4.42
2019-05-29T22:40:26.366Z,6.80
2019-05-29T22:42:55.574Z,6.22
2019-05-29T22:45:24.280Z,5.97
2019-05-29T22:47:53.706Z,5.55
2019-05-29T22:50:22.317Z,5.80
2019-05-29T22:52:51.772Z,5.55
2019-05-29T22:55:20.355Z,4.58
2019-05-29T22:57:48.741Z,6.80
2019-05-29T23:00:17.857Z,5.67
2019-05-29T23:02:46.239Z,5.95
2019-05-29T23:05:14.752Z,3.75
2019-05-29T23:07:43.404Z,3.47
2019-05-29T23:10:13.022Z,5.37
2019-05-29T23:12:41.427Z,5.30
2019-05-29T23:15:10.156Z,5.05
2019-05-29T23:17:38.855Z,5.40
2019-05-29T23:20:08.685Z,4.17
2019-05-29T23:22:37.082Z,3.47
2019-05-29T23:25:09.776Z,4.95
2019-05-29T23:27:38.176Z,4.00
2019-05-29T23:30:09.458Z,4.05
2019-05-29T23:32:38.032Z,7.50
2019-05-29T23:35:07.262Z,5.47
2019-05-29T23:37:35.661Z,6.37
2019-05-29T23:40:06.395Z,7.97
2019-05-29T23:42:34.801Z,7.87
2019-05-29T23:45:04.253Z,7.58
2019-05-29T23:47:32.647Z,6.30
2019-05-29T23:50:02.850Z,10.05
2019-05-29T23:52:31.361Z,7.42
2019-05-29T23:54:59.887Z,5.72
2019-05-29T23:57:28.712Z,9.15
